sensor_id;sensor_type;location;lat;lon;timestamp;P1;durP1;ratioP1;P2;durP2;ratioP2
82125;SDS011;71668;51.400;6.758;2023-08-06T00:01:43;3.63;;;3.30;;
82125;SDS011;71668;51.400;6.758;2023-08-06T00:04:10;5.20;;;3.43;;
82125;SDS011;71668;51.400;6.758;2023-08-06T00:06:37;5.10;;;3.43;;
82125;SDS011;71668;51.400;6.758;2023-08-06T00:09:03;7.80;;;3.30;;
82125;SDS011;71668;51.400;6.758;2023-08-06T00:11:30;3.57;;;2.87;;
82125;SDS011;71668;51.400;6.758;2023-08-06T00:13:57;4.13;;;3.40;;
82125;SDS011;71668;51.400;6.758;2023-08-06T00:16:24;5.67;;;3.63;;
82125;SDS011;71668;51.400;6.758;2023-08-06T00:18:51;4.33;;;3.53;;
82125;SDS011;71668;51.400;6.758;2023-08-06T00:21:17;3.80;;;3.13;;
82125;SDS011;71668;51.400;6.758;2023-08-06T00:23:44;3.97;;;2.97;;
82125;SDS011;71668;51.400;6.758;2023-08-06T00:26:11;3.90;;;3.00;;
82125;SDS011;71668;51.400;6.758;2023-08-06T00:28:38;4.63;;;3.33;;
82125;SDS011;71668;51.400;6.758;2023-08-06T00:31:05;5.77;;;3.50;;
82125;SDS011;71668;51.400;6.758;2023-08-06T00:33:32;4.87;;;3.30;;
82125;SDS011;71668;51.400;6.758;2023-08-06T00:35:59;5.73;;;3.20;;
82125;SDS011;71668;51.400;6.758;2023-08-06T00:38:25;4.23;;;2.90;;
82125;SDS011;71668;51.400;6.758;2023-08-06T00:40:52;3.97;;;3.27;;
82125;SDS011;71668;51.400;6.758;2023-08-06T00:43:19;5.80;;;2.87;;
82125;SDS011;71668;51.400;6.758;2023-08-06T00:45:46;3.20;;;2.80;;
82125;SDS011;71668;51.400;6.758;2023-08-06T00:48:13;3.93;;;3.13;;
82125;SDS011;71668;51.400;6.758;2023-08-06T00:50:40;3.50;;;3.20;;
82125;SDS011;71668;51.400;6.758;2023-08-06T00:53:08;3.27;;;2.97;;
82125;SDS011;71668;51.400;6.758;2023-08-06T00:55:40;5.17;;;3.60;;
82125;SDS011;71668;51.400;6.758;2023-08-06T00:58:09;4.87;;;3.00;;
82125;SDS011;71668;51.400;6.758;2023-08-06T01:00:36;3.87;;;3.37;;
82125;SDS011;71668;51.400;6.758;2023-08-06T01:03:04;5.13;;;3.33;;
82125;SDS011;71668;51.400;6.758;2023-08-06T01:05:31;4.83;;;3.10;;
82125;SDS011;71668;51.400;6.758;2023-08-06T01:10:35;4.03;;;3.33;;
82125;SDS011;71668;51.400;6.758;2023-08-06T01:16:04;4.63;;;2.90;;
82125;SDS011;71668;51.400;6.758;2023-08-06T01:18:33;3.67;;;2.93;;
82125;SDS011;71668;51.400;6.758;2023-08-06T01:21:00;4.53;;;3.10;;
82125;SDS011;71668;51.400;6.758;2023-08-06T01:23:30;2.97;;;2.73;;
82125;SDS011;71668;51.400;6.758;2023-08-06T01:31:48;3.13;;;2.83;;
82125;SDS011;71668;51.400;6.758;2023-08-06T01:34:22;2.97;;;2.60;;
82125;SDS011;71668;51.400;6.758;2023-08-06T01:36:52;4.13;;;2.83;;
82125;SDS011;71668;51.400;6.758;2023-08-06T01:39:22;4.47;;;3.03;;
82125;SDS011;71668;51.400;6.758;2023-08-06T01:41:49;3.23;;;2.73;;
82125;SDS011;71668;51.400;6.758;2023-08-06T01:44:16;4.43;;;2.77;;
82125;SDS011;71668;51.400;6.758;2023-08-06T01:46:44;3.60;;;2.70;;
82125;SDS011;71668;51.400;6.758;2023-08-06T01:49:10;5.33;;;2.90;;
82125;SDS011;71668;51.400;6.758;2023-08-06T01:51:37;5.30;;;3.07;;
82125;SDS011;71668;51.400;6.758;2023-08-06T01:54:04;5.27;;;3.23;;
82125;SDS011;71668;51.400;6.758;2023-08-06T01:56:31;4.13;;;3.10;;
82125;SDS011;71668;51.400;6.758;2023-08-06T01:58:58;3.13;;;2.83;;
82125;SDS011;71668;51.400;6.758;2023-08-06T02:01:28;5.97;;;3.10;;
82125;SDS011;71668;51.400;6.758;2023-08-06T02:03:55;4.07;;;3.10;;
82125;SDS011;71668;51.400;6.758;2023-08-06T02:06:22;4.23;;;3.37;;
82125;SDS011;71668;51.400;6.758;2023-08-06T02:08:48;5.50;;;3.17;;
82125;SDS011;71668;51.400;6.758;2023-08-06T02:11:16;6.33;;;3.20;;
82125;SDS011;71668;51.400;6.758;2023-08-06T02:13:43;3.87;;;2.90;;
82125;SDS011;71668;51.400;6.758;2023-08-06T02:16:15;4.17;;;2.60;;
82125;SDS011;71668;51.400;6.758;2023-08-06T02:18:43;5.37;;;2.90;;
82125;SDS011;71668;51.400;6.758;2023-08-06T02:21:10;5.07;;;2.80;;
82125;SDS011;71668;51.400;6.758;2023-08-06T02:23:36;4.40;;;3.10;;
82125;SDS011;71668;51.400;6.758;2023-08-06T02:26:03;3.33;;;3.00;;
82125;SDS011;71668;51.400;6.758;2023-08-06T02:28:31;3.67;;;2.83;;
82125;SDS011;71668;51.400;6.758;2023-08-06T02:30:58;3.40;;;2.97;;
82125;SDS011;71668;51.400;6.758;2023-08-06T02:33:25;3.20;;;2.90;;
82125;SDS011;71668;51.400;6.758;2023-08-06T02:36:01;6.67;;;3.40;;
82125;SDS011;71668;51.400;6.758;2023-08-06T02:38:30;3.30;;;3.00;;
82125;SDS011;71668;51.400;6.758;2023-08-06T02:40:58;6.70;;;3.20;;
82125;SDS011;71668;51.400;6.758;2023-08-06T02:43:32;3.93;;;2.70;;
82125;SDS011;71668;51.400;6.758;2023-08-06T02:45:59;5.37;;;3.13;;
82125;SDS011;71668;51.400;6.758;2023-08-06T02:48:27;4.03;;;3.30;;
82125;SDS011;71668;51.400;6.758;2023-08-06T02:50:57;4.83;;;2.80;;
82125;SDS011;71668;51.400;6.758;2023-08-06T02:53:30;5.17;;;3.10;;
82125;SDS011;71668;51.400;6.758;2023-08-06T02:56:02;4.27;;;3.00;;
82125;SDS011;71668;51.400;6.758;2023-08-06T02:58:45;4.90;;;3.40;;
82125;SDS011;71668;51.400;6.758;2023-08-06T03:01:22;4.67;;;3.30;;
82125;SDS011;71668;51.400;6.758;2023-08-06T03:03:55;5.73;;;3.30;;
82125;SDS011;71668;51.400;6.758;2023-08-06T03:06:28;4.33;;;3.27;;
82125;SDS011;71668;51.400;6.758;2023-08-06T03:08:57;3.40;;;2.80;;
82125;SDS011;71668;51.400;6.758;2023-08-06T03:11:25;6.07;;;3.43;;
82125;SDS011;71668;51.400;6.758;2023-08-06T03:13:57;4.40;;;2.83;;
82125;SDS011;71668;51.400;6.758;2023-08-06T03:16:23;4.20;;;3.27;;
82125;SDS011;71668;51.400;6.758;2023-08-06T03:18:50;5.70;;;2.83;;
82125;SDS011;71668;51.400;6.758;2023-08-06T03:21:19;4.17;;;2.90;;
82125;SDS011;71668;51.400;6.758;2023-08-06T03:23:47;4.17;;;2.77;;
82125;SDS011;71668;51.400;6.758;2023-08-06T03:26:17;3.93;;;2.97;;
82125;SDS011;71668;51.400;6.758;2023-08-06T03:28:45;3.17;;;2.87;;
82125;SDS011;71668;51.400;6.758;2023-08-06T03:31:13;4.00;;;2.90;;
82125;SDS011;71668;51.400;6.758;2023-08-06T03:33:42;5.90;;;3.10;;
82125;SDS011;71668;51.400;6.758;2023-08-06T03:36:13;3.57;;;3.17;;
82125;SDS011;71668;51.400;6.758;2023-08-06T03:38:41;7.27;;;3.00;;
82125;SDS011;71668;51.400;6.758;2023-08-06T03:41:10;4.13;;;3.37;;
82125;SDS011;71668;51.400;6.758;2023-08-06T03:43:38;4.57;;;3.17;;
82125;SDS011;71668;51.400;6.758;2023-08-06T03:46:09;3.87;;;3.47;;
82125;SDS011;71668;51.400;6.758;2023-08-06T03:48:36;3.30;;;3.00;;
82125;SDS011;71668;51.400;6.758;2023-08-06T03:51:03;5.00;;;3.20;;
82125;SDS011;71668;51.400;6.758;2023-08-06T03:53:30;7.00;;;2.90;;
82125;SDS011;71668;51.400;6.758;2023-08-06T03:55:57;3.73;;;2.90;;
82125;SDS011;71668;51.400;6.758;2023-08-06T03:58:27;4.53;;;2.77;;
82125;SDS011;71668;51.400;6.758;2023-08-06T04:01:01;4.03;;;2.97;;
82125;SDS011;71668;51.400;6.758;2023-08-06T04:03:38;5.17;;;3.03;;
82125;SDS011;71668;51.400;6.758;2023-08-06T04:06:05;3.30;;;2.90;;
82125;SDS011;71668;51.400;6.758;2023-08-06T04:08:33;3.30;;;3.00;;
82125;SDS011;71668;51.400;6.758;2023-08-06T04:11:01;5.07;;;3.00;;
82125;SDS011;71668;51.400;6.758;2023-08-06T04:13:30;5.30;;;2.80;;
82125;SDS011;71668;51.400;6.758;2023-08-06T04:16:03;3.70;;;3.17;;
82125;SDS011;71668;51.400;6.758;2023-08-06T04:18:31;6.03;;;3.40;;
82125;SDS011;71668;51.400;6.758;2023-08-06T04:20:58;2.90;;;2.60;;
82125;SDS011;71668;51.400;6.758;2023-08-06T04:23:25;3.07;;;2.73;;
82125;SDS011;71668;51.400;6.758;2023-08-06T04:25:56;4.67;;;2.60;;
82125;SDS011;71668;51.400;6.758;2023-08-06T04:28:30;5.20;;;2.77;;
82125;SDS011;71668;51.400;6.758;2023-08-06T04:30:58;3.40;;;2.93;;
82125;SDS011;71668;51.400;6.758;2023-08-06T04:33:26;5.10;;;2.50;;
82125;SDS011;71668;51.400;6.758;2023-08-06T04:35:55;3.73;;;2.47;;
82125;SDS011;71668;51.400;6.758;2023-08-06T04:38:24;3.03;;;2.27;;
82125;SDS011;71668;51.400;6.758;2023-08-06T04:40:52;3.87;;;2.40;;
82125;SDS011;71668;51.400;6.758;2023-08-06T04:43:21;3.87;;;2.47;;
82125;SDS011;71668;51.400;6.758;2023-08-06T04:45:49;3.17;;;2.30;;
82125;SDS011;71668;51.400;6.758;2023-08-06T04:48:17;4.83;;;2.70;;
82125;SDS011;71668;51.400;6.758;2023-08-06T04:50:45;5.13;;;2.37;;
82125;SDS011;71668;51.400;6.758;2023-08-06T04:53:13;2.77;;;2.43;;
82125;SDS011;71668;51.400;6.758;2023-08-06T04:55:40;3.50;;;2.50;;
82125;SDS011;71668;51.400;6.758;2023-08-06T04:58:09;3.03;;;2.40;;
82125;SDS011;71668;51.400;6.758;2023-08-06T05:00:36;4.63;;;2.50;;
82125;SDS011;71668;51.400;6.758;2023-08-06T05:03:03;3.33;;;2.70;;
82125;SDS011;71668;51.400;6.758;2023-08-06T05:05:30;3.87;;;2.73;;
82125;SDS011;71668;51.400;6.758;2023-08-06T05:07:57;3.93;;;2.67;;
82125;SDS011;71668;51.400;6.758;2023-08-06T05:10:24;3.73;;;2.60;;
82125;SDS011;71668;51.400;6.758;2023-08-06T05:12:52;3.83;;;2.47;;
82125;SDS011;71668;51.400;6.758;2023-08-06T05:15:19;4.73;;;2.73;;
82125;SDS011;71668;51.400;6.758;2023-08-06T05:17:46;4.40;;;2.67;;
82125;SDS011;71668;51.400;6.758;2023-08-06T05:20:13;3.00;;;2.70;;
82125;SDS011;71668;51.400;6.758;2023-08-06T05:22:41;5.33;;;3.00;;
82125;SDS011;71668;51.400;6.758;2023-08-06T05:25:12;4.33;;;2.53;;
82125;SDS011;71668;51.400;6.758;2023-08-06T05:27:40;4.07;;;2.80;;
82125;SDS011;71668;51.400;6.758;2023-08-06T05:30:08;2.97;;;2.37;;
82125;SDS011;71668;51.400;6.758;2023-08-06T05:32:35;4.40;;;2.60;;
82125;SDS011;71668;51.400;6.758;2023-08-06T05:35:02;3.47;;;2.40;;
82125;SDS011;71668;51.400;6.758;2023-08-06T05:37:30;3.63;;;2.77;;
82125;SDS011;71668;51.400;6.758;2023-08-06T05:39:57;3.97;;;2.63;;
82125;SDS011;71668;51.400;6.758;2023-08-06T05:42:24;3.93;;;2.50;;
82125;SDS011;71668;51.400;6.758;2023-08-06T05:44:51;2.97;;;2.67;;
82125;SDS011;71668;51.400;6.758;2023-08-06T05:47:17;3.70;;;2.83;;
82125;SDS011;71668;51.400;6.758;2023-08-06T05:49:46;4.20;;;2.43;;
82125;SDS011;71668;51.400;6.758;2023-08-06T05:52:13;5.40;;;2.30;;
82125;SDS011;71668;51.400;6.758;2023-08-06T05:54:40;3.23;;;2.40;;
82125;SDS011;71668;51.400;6.758;2023-08-06T05:57:07;2.50;;;2.30;;
82125;SDS011;71668;51.400;6.758;2023-08-06T05:59:33;3.77;;;2.70;;
82125;SDS011;71668;51.400;6.758;2023-08-06T06:02:00;3.23;;;2.43;;
82125;SDS011;71668;51.400;6.758;2023-08-06T06:04:27;3.43;;;2.63;;
82125;SDS011;71668;51.400;6.758;2023-08-06T06:06:54;3.20;;;2.47;;
82125;SDS011;71668;51.400;6.758;2023-08-06T06:09:21;4.00;;;2.60;;
82125;SDS011;71668;51.400;6.758;2023-08-06T06:11:48;2.87;;;2.10;;
82125;SDS011;71668;51.400;6.758;2023-08-06T06:14:17;4.30;;;2.60;;
82125;SDS011;71668;51.400;6.758;2023-08-06T06:16:44;2.97;;;2.30;;
82125;SDS011;71668;51.400;6.758;2023-08-06T06:19:12;4.07;;;2.60;;
82125;SDS011;71668;51.400;6.758;2023-08-06T06:21:39;4.03;;;2.50;;
82125;SDS011;71668;51.400;6.758;2023-08-06T06:24:06;4.20;;;2.07;;
82125;SDS011;71668;51.400;6.758;2023-08-06T06:26:34;3.80;;;1.93;;
82125;SDS011;71668;51.400;6.758;2023-08-06T06:29:01;2.58;;;1.90;;
82125;SDS011;71668;51.400;6.758;2023-08-06T06:31:27;5.75;;;2.10;;
82125;SDS011;71668;51.400;6.758;2023-08-06T06:33:54;2.97;;;2.35;;
82125;SDS011;71668;51.400;6.758;2023-08-06T06:36:21;2.83;;;2.15;;
82125;SDS011;71668;51.400;6.758;2023-08-06T06:38:50;4.70;;;1.98;;
82125;SDS011;71668;51.400;6.758;2023-08-06T06:41:17;3.58;;;2.15;;
82125;SDS011;71668;51.400;6.758;2023-08-06T06:43:44;3.65;;;2.10;;
82125;SDS011;71668;51.400;6.758;2023-08-06T06:46:11;4.15;;;2.20;;
82125;SDS011;71668;51.400;6.758;2023-08-06T06:48:38;4.45;;;2.20;;
82125;SDS011;71668;51.400;6.758;2023-08-06T06:51:04;3.45;;;2.22;;
82125;SDS011;71668;51.400;6.758;2023-08-06T06:53:31;3.88;;;2.08;;
82125;SDS011;71668;51.400;6.758;2023-08-06T06:56:02;2.87;;;2.40;;
82125;SDS011;71668;51.400;6.758;2023-08-06T06:58:31;3.00;;;1.93;;
82125;SDS011;71668;51.400;6.758;2023-08-06T07:00:59;3.17;;;2.10;;
82125;SDS011;71668;51.400;6.758;2023-08-06T07:03:26;3.23;;;2.20;;
82125;SDS011;71668;51.400;6.758;2023-08-06T07:05:56;3.87;;;2.23;;
82125;SDS011;71668;51.400;6.758;2023-08-06T07:08:25;3.63;;;2.20;;
82125;SDS011;71668;51.400;6.758;2023-08-06T07:10:59;3.07;;;2.10;;
82125;SDS011;71668;51.400;6.758;2023-08-06T07:13:30;3.17;;;2.27;;
82125;SDS011;71668;51.400;6.758;2023-08-06T07:15:58;2.10;;;1.80;;
82125;SDS011;71668;51.400;6.758;2023-08-06T07:18:25;2.30;;;1.77;;
82125;SDS011;71668;51.400;6.758;2023-08-06T07:20:52;3.43;;;1.90;;
82125;SDS011;71668;51.400;6.758;2023-08-06T07:23:21;2.97;;;2.20;;
82125;SDS011;71668;51.400;6.758;2023-08-06T07:25:49;2.50;;;1.93;;
82125;SDS011;71668;51.400;6.758;2023-08-06T07:28:16;2.67;;;2.30;;
82125;SDS011;71668;51.400;6.758;2023-08-06T07:30:43;2.53;;;2.10;;
82125;SDS011;71668;51.400;6.758;2023-08-06T07:33:11;2.87;;;2.50;;
82125;SDS011;71668;51.400;6.758;2023-08-06T07:35:38;3.67;;;2.40;;
82125;SDS011;71668;51.400;6.758;2023-08-06T07:38:05;2.87;;;2.40;;
82125;SDS011;71668;51.400;6.758;2023-08-06T07:40:32;2.30;;;2.10;;
82125;SDS011;71668;51.400;6.758;2023-08-06T07:43:03;3.33;;;2.40;;
82125;SDS011;71668;51.400;6.758;2023-08-06T07:45:36;2.67;;;2.10;;
82125;SDS011;71668;51.400;6.758;2023-08-06T07:48:04;2.93;;;2.20;;
82125;SDS011;71668;51.400;6.758;2023-08-06T07:50:31;2.20;;;2.00;;
82125;SDS011;71668;51.400;6.758;2023-08-06T07:52:58;2.60;;;1.80;;
82125;SDS011;71668;51.400;6.758;2023-08-06T07:55:25;4.30;;;2.67;;
82125;SDS011;71668;51.400;6.758;2023-08-06T07:57:52;2.40;;;2.20;;
82125;SDS011;71668;51.400;6.758;2023-08-06T08:00:20;3.50;;;2.00;;
82125;SDS011;71668;51.400;6.758;2023-08-06T08:02:47;3.07;;;2.10;;
82125;SDS011;71668;51.400;6.758;2023-08-06T08:05:14;3.33;;;1.93;;
82125;SDS011;71668;51.400;6.758;2023-08-06T08:07:41;2.57;;;2.07;;
82125;SDS011;71668;51.400;6.758;2023-08-06T08:10:08;2.47;;;1.97;;
82125;SDS011;71668;51.400;6.758;2023-08-06T08:12:35;4.90;;;2.20;;
82125;SDS011;71668;51.400;6.758;2023-08-06T08:15:01;3.00;;;2.23;;
82125;SDS011;71668;51.400;6.758;2023-08-06T08:17:29;3.33;;;1.90;;
82125;SDS011;71668;51.400;6.758;2023-08-06T08:19:56;4.30;;;2.43;;
82125;SDS011;71668;51.400;6.758;2023-08-06T08:22:23;2.33;;;2.13;;
82125;SDS011;71668;51.400;6.758;2023-08-06T08:24:50;3.57;;;2.33;;
82125;SDS011;71668;51.400;6.758;2023-08-06T08:27:17;2.93;;;2.37;;
82125;SDS011;71668;51.400;6.758;2023-08-06T08:29:44;4.07;;;2.33;;
82125;SDS011;71668;51.400;6.758;2023-08-06T08:32:10;3.73;;;2.67;;
82125;SDS011;71668;51.400;6.758;2023-08-06T08:34:37;2.90;;;2.50;;
82125;SDS011;71668;51.400;6.758;2023-08-06T08:37:04;2.83;;;2.57;;
82125;SDS011;71668;51.400;6.758;2023-08-06T08:39:32;2.87;;;2.27;;
82125;SDS011;71668;51.400;6.758;2023-08-06T08:41:59;3.00;;;2.50;;
82125;SDS011;71668;51.400;6.758;2023-08-06T08:44:27;3.90;;;2.47;;
82125;SDS011;71668;51.400;6.758;2023-08-06T08:46:55;5.77;;;2.70;;
82125;SDS011;71668;51.400;6.758;2023-08-06T08:49:23;3.03;;;2.50;;
82125;SDS011;71668;51.400;6.758;2023-08-06T08:51:51;4.10;;;2.30;;
82125;SDS011;71668;51.400;6.758;2023-08-06T08:54:21;3.07;;;2.40;;
82125;SDS011;71668;51.400;6.758;2023-08-06T08:56:50;3.70;;;2.20;;
82125;SDS011;71668;51.400;6.758;2023-08-06T08:59:17;3.97;;;2.37;;
82125;SDS011;71668;51.400;6.758;2023-08-06T09:01:44;5.07;;;2.53;;
82125;SDS011;71668;51.400;6.758;2023-08-06T09:04:18;4.93;;;2.60;;
82125;SDS011;71668;51.400;6.758;2023-08-06T09:06:46;5.40;;;2.40;;
82125;SDS011;71668;51.400;6.758;2023-08-06T09:09:25;3.40;;;2.50;;
82125;SDS011;71668;51.400;6.758;2023-08-06T09:11:55;3.60;;;2.17;;
82125;SDS011;71668;51.400;6.758;2023-08-06T09:14:27;3.33;;;2.10;;
82125;SDS011;71668;51.400;6.758;2023-08-06T09:16:54;4.20;;;2.43;;
82125;SDS011;71668;51.400;6.758;2023-08-06T09:19:21;3.80;;;2.37;;
82125;SDS011;71668;51.400;6.758;2023-08-06T09:21:50;3.17;;;2.30;;
82125;SDS011;71668;51.400;6.758;2023-08-06T09:24:18;3.17;;;2.40;;
82125;SDS011;71668;51.400;6.758;2023-08-06T09:26:45;4.10;;;2.13;;
82125;SDS011;71668;51.400;6.758;2023-08-06T09:29:12;4.13;;;2.00;;
82125;SDS011;71668;51.400;6.758;2023-08-06T09:31:42;3.20;;;2.00;;
82125;SDS011;71668;51.400;6.758;2023-08-06T09:34:11;4.73;;;2.00;;
82125;SDS011;71668;51.400;6.758;2023-08-06T09:36:43;4.37;;;2.30;;
82125;SDS011;71668;51.400;6.758;2023-08-06T09:39:13;5.37;;;2.47;;
82125;SDS011;71668;51.400;6.758;2023-08-06T09:41:42;4.10;;;2.37;;
82125;SDS011;71668;51.400;6.758;2023-08-06T09:44:19;3.57;;;2.13;;
82125;SDS011;71668;51.400;6.758;2023-08-06T09:46:48;4.80;;;2.20;;
82125;SDS011;71668;51.400;6.758;2023-08-06T09:49:19;4.50;;;3.03;;
82125;SDS011;71668;51.400;6.758;2023-08-06T09:51:50;3.73;;;2.53;;
82125;SDS011;71668;51.400;6.758;2023-08-06T09:54:20;5.23;;;2.23;;
82125;SDS011;71668;51.400;6.758;2023-08-06T09:56:52;3.93;;;2.13;;
82125;SDS011;71668;51.400;6.758;2023-08-06T09:59:19;3.83;;;2.20;;
82125;SDS011;71668;51.400;6.758;2023-08-06T10:01:46;2.55;;;2.00;;
82125;SDS011;71668;51.400;6.758;2023-08-06T10:04:15;3.60;;;2.40;;
82125;SDS011;71668;51.400;6.758;2023-08-06T10:06:48;3.72;;;2.20;;
82125;SDS011;71668;51.400;6.758;2023-08-06T10:09:15;2.72;;;2.33;;
82125;SDS011;71668;51.400;6.758;2023-08-06T10:11:42;3.22;;;2.42;;
82125;SDS011;71668;51.400;6.758;2023-08-06T10:14:24;3.50;;;2.50;;
82125;SDS011;71668;51.400;6.758;2023-08-06T10:16:53;3.70;;;2.88;;
82125;SDS011;71668;51.400;6.758;2023-08-06T10:19:23;3.80;;;2.83;;
82125;SDS011;71668;51.400;6.758;2023-08-06T10:22:10;4.23;;;2.90;;
82125;SDS011;71668;51.400;6.758;2023-08-06T10:25:13;3.90;;;2.83;;
82125;SDS011;71668;51.400;6.758;2023-08-06T10:33:03;3.87;;;3.40;;
82125;SDS011;71668;51.400;6.758;2023-08-06T10:35:31;4.03;;;3.00;;
82125;SDS011;71668;51.400;6.758;2023-08-06T10:38:03;3.90;;;3.07;;
82125;SDS011;71668;51.400;6.758;2023-08-06T10:40:36;4.17;;;2.70;;
82125;SDS011;71668;51.400;6.758;2023-08-06T10:43:05;3.17;;;2.40;;
82125;SDS011;71668;51.400;6.758;2023-08-06T10:45:34;2.37;;;1.60;;
82125;SDS011;71668;51.400;6.758;2023-08-06T10:48:02;2.20;;;1.60;;
82125;SDS011;71668;51.400;6.758;2023-08-06T10:50:30;2.67;;;1.33;;
82125;SDS011;71668;51.400;6.758;2023-08-06T10:52:57;1.20;;;1.07;;
82125;SDS011;71668;51.400;6.758;2023-08-06T10:55:29;1.53;;;1.20;;
82125;SDS011;71668;51.400;6.758;2023-08-06T10:57:56;1.40;;;1.17;;
82125;SDS011;71668;51.400;6.758;2023-08-06T11:00:24;1.73;;;1.13;;
82125;SDS011;71668;51.400;6.758;2023-08-06T11:02:52;1.10;;;1.00;;
82125;SDS011;71668;51.400;6.758;2023-08-06T11:05:20;3.30;;;1.50;;
82125;SDS011;71668;51.400;6.758;2023-08-06T11:07:46;1.90;;;1.70;;
82125;SDS011;71668;51.400;6.758;2023-08-06T11:10:15;2.63;;;1.33;;
82125;SDS011;71668;51.400;6.758;2023-08-06T11:12:42;1.83;;;1.13;;
82125;SDS011;71668;51.400;6.758;2023-08-06T11:15:09;1.90;;;1.50;;
82125;SDS011;71668;51.400;6.758;2023-08-06T11:17:39;1.23;;;1.13;;
82125;SDS011;71668;51.400;6.758;2023-08-06T11:20:07;1.97;;;1.50;;
82125;SDS011;71668;51.400;6.758;2023-08-06T11:22:35;2.30;;;1.37;;
82125;SDS011;71668;51.400;6.758;2023-08-06T11:25:04;2.10;;;1.20;;
82125;SDS011;71668;51.400;6.758;2023-08-06T11:27:32;1.30;;;1.07;;
82125;SDS011;71668;51.400;6.758;2023-08-06T11:30:00;1.23;;;1.13;;
82125;SDS011;71668;51.400;6.758;2023-08-06T11:32:26;1.30;;;1.20;;
82125;SDS011;71668;51.400;6.758;2023-08-06T11:34:54;1.17;;;1.07;;
82125;SDS011;71668;51.400;6.758;2023-08-06T11:37:22;1.27;;;1.17;;
82125;SDS011;71668;51.400;6.758;2023-08-06T11:39:51;1.30;;;1.20;;
82125;SDS011;71668;51.400;6.758;2023-08-06T11:42:18;1.70;;;1.17;;
82125;SDS011;71668;51.400;6.758;2023-08-06T11:44:45;1.30;;;1.10;;
82125;SDS011;71668;51.400;6.758;2023-08-06T11:47:13;2.27;;;1.27;;
82125;SDS011;71668;51.400;6.758;2023-08-06T11:49:45;2.47;;;1.17;;
82125;SDS011;71668;51.400;6.758;2023-08-06T11:52:16;1.23;;;1.10;;
82125;SDS011;71668;51.400;6.758;2023-08-06T11:55:05;1.80;;;1.00;;
82125;SDS011;71668;51.400;6.758;2023-08-06T11:57:36;1.17;;;1.07;;
82125;SDS011;71668;51.400;6.758;2023-08-06T12:00:06;1.90;;;1.30;;
82125;SDS011;71668;51.400;6.758;2023-08-06T12:02:38;1.40;;;1.00;;
82125;SDS011;71668;51.400;6.758;2023-08-06T12:05:14;1.80;;;1.03;;
82125;SDS011;71668;51.400;6.758;2023-08-06T12:07:43;1.50;;;0.97;;
82125;SDS011;71668;51.400;6.758;2023-08-06T12:10:35;1.50;;;1.27;;
82125;SDS011;71668;51.400;6.758;2023-08-06T12:13:03;1.30;;;1.00;;
82125;SDS011;71668;51.400;6.758;2023-08-06T12:15:30;1.93;;;1.33;;
82125;SDS011;71668;51.400;6.758;2023-08-06T12:17:59;1.30;;;1.20;;
82125;SDS011;71668;51.400;6.758;2023-08-06T12:20:26;2.17;;;0.90;;
82125;SDS011;71668;51.400;6.758;2023-08-06T12:22:54;1.37;;;1.10;;
82125;SDS011;71668;51.400;6.758;2023-08-06T12:25:21;1.20;;;1.10;;
82125;SDS011;71668;51.400;6.758;2023-08-06T12:27:49;1.30;;;1.20;;
82125;SDS011;71668;51.400;6.758;2023-08-06T12:30:16;1.47;;;1.27;;
82125;SDS011;71668;51.400;6.758;2023-08-06T12:32:43;1.40;;;1.20;;
82125;SDS011;71668;51.400;6.758;2023-08-06T12:35:10;1.90;;;1.70;;
82125;SDS011;71668;51.400;6.758;2023-08-06T12:37:37;1.70;;;1.30;;
82125;SDS011;71668;51.400;6.758;2023-08-06T12:40:07;1.57;;;1.40;;
82125;SDS011;71668;51.400;6.758;2023-08-06T12:42:54;1.93;;;1.50;;
82125;SDS011;71668;51.400;6.758;2023-08-06T12:45:21;1.60;;;1.50;;
82125;SDS011;71668;51.400;6.758;2023-08-06T12:47:48;1.50;;;1.40;;
82125;SDS011;71668;51.400;6.758;2023-08-06T12:50:16;2.10;;;1.90;;
82125;SDS011;71668;51.400;6.758;2023-08-06T12:52:43;2.60;;;2.00;;
82125;SDS011;71668;51.400;6.758;2023-08-06T12:55:10;1.80;;;1.70;;
82125;SDS011;71668;51.400;6.758;2023-08-06T12:57:37;2.10;;;1.80;;
82125;SDS011;71668;51.400;6.758;2023-08-06T13:00:10;2.63;;;2.00;;
82125;SDS011;71668;51.400;6.758;2023-08-06T13:02:37;2.60;;;2.40;;
82125;SDS011;71668;51.400;6.758;2023-08-06T13:05:04;2.33;;;2.13;;
82125;SDS011;71668;51.400;6.758;2023-08-06T13:07:32;2.47;;;2.00;;
82125;SDS011;71668;51.400;6.758;2023-08-06T13:09:59;2.40;;;2.10;;
82125;SDS011;71668;51.400;6.758;2023-08-06T13:12:26;3.10;;;2.30;;
82125;SDS011;71668;51.400;6.758;2023-08-06T13:14:52;2.50;;;2.30;;
82125;SDS011;71668;51.400;6.758;2023-08-06T13:17:21;3.03;;;2.17;;
82125;SDS011;71668;51.400;6.758;2023-08-06T13:19:48;3.77;;;2.33;;
82125;SDS011;71668;51.400;6.758;2023-08-06T13:22:15;2.60;;;2.40;;
82125;SDS011;71668;51.400;6.758;2023-08-06T13:24:42;2.33;;;2.13;;
82125;SDS011;71668;51.400;6.758;2023-08-06T13:27:09;9.30;;;7.63;;
82125;SDS011;71668;51.400;6.758;2023-08-06T13:29:36;3.07;;;2.73;;
82125;SDS011;71668;51.400;6.758;2023-08-06T13:32:03;2.57;;;2.20;;
82125;SDS011;71668;51.400;6.758;2023-08-06T13:34:30;2.77;;;2.30;;
82125;SDS011;71668;51.400;6.758;2023-08-06T13:36:56;3.17;;;2.20;;
82125;SDS011;71668;51.400;6.758;2023-08-06T13:39:24;2.67;;;2.20;;
82125;SDS011;71668;51.400;6.758;2023-08-06T13:41:50;3.50;;;2.40;;
82125;SDS011;71668;51.400;6.758;2023-08-06T13:44:17;2.83;;;2.30;;
82125;SDS011;71668;51.400;6.758;2023-08-06T13:46:44;2.47;;;2.27;;
82125;SDS011;71668;51.400;6.758;2023-08-06T13:49:11;2.80;;;2.50;;
82125;SDS011;71668;51.400;6.758;2023-08-06T13:51:38;3.27;;;2.70;;
82125;SDS011;71668;51.400;6.758;2023-08-06T13:54:05;3.60;;;2.50;;
82125;SDS011;71668;51.400;6.758;2023-08-06T13:56:32;2.67;;;2.30;;
82125;SDS011;71668;51.400;6.758;2023-08-06T13:59:00;4.30;;;2.50;;
82125;SDS011;71668;51.400;6.758;2023-08-06T14:01:27;4.00;;;2.60;;
82125;SDS011;71668;51.400;6.758;2023-08-06T14:04:14;3.30;;;2.13;;
82125;SDS011;71668;51.400;6.758;2023-08-06T14:06:41;2.63;;;2.13;;
82125;SDS011;71668;51.400;6.758;2023-08-06T14:09:08;3.23;;;2.17;;
82125;SDS011;71668;51.400;6.758;2023-08-06T14:11:35;3.83;;;1.90;;
82125;SDS011;71668;51.400;6.758;2023-08-06T14:14:02;3.00;;;2.20;;
82125;SDS011;71668;51.400;6.758;2023-08-06T14:16:29;2.20;;;1.83;;
82125;SDS011;71668;51.400;6.758;2023-08-06T14:18:56;2.93;;;2.07;;
82125;SDS011;71668;51.400;6.758;2023-08-06T14:21:23;2.60;;;2.20;;
82125;SDS011;71668;51.400;6.758;2023-08-06T14:23:50;2.10;;;1.90;;
82125;SDS011;71668;51.400;6.758;2023-08-06T14:26:17;2.27;;;1.60;;
82125;SDS011;71668;51.400;6.758;2023-08-06T14:28:44;2.83;;;2.03;;
82125;SDS011;71668;51.400;6.758;2023-08-06T14:31:12;2.87;;;2.07;;
82125;SDS011;71668;51.400;6.758;2023-08-06T14:33:38;2.20;;;1.70;;
82125;SDS011;71668;51.400;6.758;2023-08-06T14:36:05;2.40;;;1.80;;
82125;SDS011;71668;51.400;6.758;2023-08-06T14:38:32;3.63;;;1.80;;
82125;SDS011;71668;51.400;6.758;2023-08-06T14:41:06;2.20;;;1.90;;
82125;SDS011;71668;51.400;6.758;2023-08-06T14:43:33;2.93;;;1.93;;
82125;SDS011;71668;51.400;6.758;2023-08-06T14:45:59;2.03;;;1.67;;
82125;SDS011;71668;51.400;6.758;2023-08-06T14:48:27;4.43;;;1.97;;
82125;SDS011;71668;51.400;6.758;2023-08-06T14:50:54;2.70;;;1.90;;
82125;SDS011;71668;51.400;6.758;2023-08-06T14:53:21;3.23;;;1.80;;
82125;SDS011;71668;51.400;6.758;2023-08-06T14:55:48;2.60;;;2.00;;
82125;SDS011;71668;51.400;6.758;2023-08-06T14:58:15;3.97;;;2.90;;
82125;SDS011;71668;51.400;6.758;2023-08-06T15:00:42;2.70;;;1.80;;
82125;SDS011;71668;51.400;6.758;2023-08-06T15:03:09;2.87;;;1.80;;
82125;SDS011;71668;51.400;6.758;2023-08-06T15:05:35;2.23;;;1.80;;
82125;SDS011;71668;51.400;6.758;2023-08-06T15:08:02;3.20;;;1.80;;
82125;SDS011;71668;51.400;6.758;2023-08-06T15:10:29;3.17;;;1.73;;
82125;SDS011;71668;51.400;6.758;2023-08-06T15:12:56;2.60;;;1.87;;